sensor_id;sensor_type;location;lat;lon;timestamp;temperature;humidity
32536;DHT22;18974;50.838;4.636;2023-01-28T00:01:15;6.10;99.90
32536;DHT22;18974;50.838;4.636;2023-01-28T00:03:41;6.20;99.90
32536;DHT22;18974;50.838;4.636;2023-01-28T00:06:09;6.10;99.90
32536;DHT22;18974;50.838;4.636;2023-01-28T00:08:36;6.10;99.90
32536;DHT22;18974;50.838;4.636;2023-01-28T00:11:03;6.10;99.90
32536;DHT22;18974;50.838;4.636;2023-01-28T00:13:30;6.10;99.90
32536;DHT22;18974;50.838;4.636;2023-01-28T00:16:03;6.10;99.90
32536;DHT22;18974;50.838;4.636;2023-01-28T00:18:33;6.10;99.90
32536;DHT22;18974;50.838;4.636;2023-01-28T00:21:01;6.00;99.90
32536;DHT22;18974;50.838;4.636;2023-01-28T00:23:28;6.00;99.90
32536;DHT22;18974;50.838;4.636;2023-01-28T00:25:54;6.00;99.90
32536;DHT22;18974;50.838;4.636;2023-01-28T00:28:22;5.90;99.90
32536;DHT22;18974;50.838;4.636;2023-01-28T00:30:47;5.90;99.90
32536;DHT22;18974;50.838;4.636;2023-01-28T00:33:15;5.90;99.90
32536;DHT22;18974;50.838;4.636;2023-01-28T00:35:41;5.80;99.90
32536;DHT22;18974;50.838;4.636;2023-01-28T00:38:07;5.80;99.90
32536;DHT22;18974;50.838;4.636;2023-01-28T00:40:33;5.90;99.90
32536;DHT22;18974;50.838;4.636;2023-01-28T00:42:59;5.90;99.90
32536;DHT22;18974;50.838;4.636;2023-01-28T00:45:24;5.90;99.90
32536;DHT22;18974;50.838;4.636;2023-01-28T00:47:50;5.80;99.90
32536;DHT22;18974;50.838;4.636;2023-01-28T00:50:16;5.70;99.90
32536;DHT22;18974;50.838;4.636;2023-01-28T00:52:41;5.70;99.90
32536;DHT22;18974;50.838;4.636;2023-01-28T00:55:07;5.80;99.90
32536;DHT22;18974;50.838;4.636;2023-01-28T00:57:33;5.80;99.90
32536;DHT22;18974;50.838;4.636;2023-01-28T00:59:59;5.80;99.90
32536;DHT22;18974;50.838;4.636;2023-01-28T01:02:24;5.80;99.90
32536;DHT22;18974;50.838;4.636;2023-01-28T01:04:51;5.80;99.90
32536;DHT22;18974;50.838;4.636;2023-01-28T01:07:25;5.70;99.90
32536;DHT22;18974;50.838;4.636;2023-01-28T01:09:59;5.80;99.90
32536;DHT22;18974;50.838;4.636;2023-01-28T01:12:25;5.70;99.90
32536;DHT22;18974;50.838;4.636;2023-01-28T01:14:51;5.70;99.90
32536;DHT22;18974;50.838;4.636;2023-01-28T01:17:16;5.80;99.90
32536;DHT22;18974;50.838;4.636;2023-01-28T01:19:42;5.80;99.90
32536;DHT22;18974;50.838;4.636;2023-01-28T01:22:08;5.70;99.90
32536;DHT22;18974;50.838;4.636;2023-01-28T01:24:33;5.80;99.90
32536;DHT22;18974;50.838;4.636;2023-01-28T01:26:59;5.80;99.90
32536;DHT22;18974;50.838;4.636;2023-01-28T01:29:25;5.90;99.90
32536;DHT22;18974;50.838;4.636;2023-01-28T01:31:50;5.80;99.90
32536;DHT22;18974;50.838;4.636;2023-01-28T01:34:16;5.80;99.90
32536;DHT22;18974;50.838;4.636;2023-01-28T01:36:42;5.80;99.90
32536;DHT22;18974;50.838;4.636;2023-01-28T01:39:11;5.80;99.90
32536;DHT22;18974;50.838;4.636;2023-01-28T01:41:37;5.90;99.90
32536;DHT22;18974;50.838;4.636;2023-01-28T01:44:04;5.80;99.90
32536;DHT22;18974;50.838;4.636;2023-01-28T01:49:23;6.00;99.90
32536;DHT22;18974;50.838;4.636;2023-01-28T01:51:57;6.00;99.90
32536;DHT22;18974;50.838;4.636;2023-01-28T01:54:26;6.10;99.90
32536;DHT22;18974;50.838;4.636;2023-01-28T01:56:54;5.90;99.90
32536;DHT22;18974;50.838;4.636;2023-01-28T01:59:25;5.80;99.90
32536;DHT22;18974;50.838;4.636;2023-01-28T02:01:52;5.90;99.90
32536;DHT22;18974;50.838;4.636;2023-01-28T02:04:22;5.90;99.90
32536;DHT22;18974;50.838;4.636;2023-01-28T02:06:49;5.90;99.90
32536;DHT22;18974;50.838;4.636;2023-01-28T02:09:29;5.90;99.90
32536;DHT22;18974;50.838;4.636;2023-01-28T02:12:00;5.90;99.90
32536;DHT22;18974;50.838;4.636;2023-01-28T02:14:31;5.90;99.90
32536;DHT22;18974;50.838;4.636;2023-01-28T02:16:59;5.80;99.90
32536;DHT22;18974;50.838;4.636;2023-01-28T02:19:33;5.70;99.90
32536;DHT22;18974;50.838;4.636;2023-01-28T02:33:03;5.70;99.90
32536;DHT22;18974;50.838;4.636;2023-01-28T02:35:52;5.70;99.90
32536;DHT22;18974;50.838;4.636;2023-01-28T02:38:45;5.70;99.90
32536;DHT22;18974;50.838;4.636;2023-01-28T02:41:22;5.70;99.90
32536;DHT22;18974;50.838;4.636;2023-01-28T02:43:48;5.90;99.90
32536;DHT22;18974;50.838;4.636;2023-01-28T02:49:22;5.80;99.90
32536;DHT22;18974;50.838;4.636;2023-01-28T02:57:46;5.70;99.90
32536;DHT22;18974;50.838;4.636;2023-01-28T03:01:07;5.60;99.90
32536;DHT22;18974;50.838;4.636;2023-01-28T03:03:20;5.70;99.90
32536;DHT22;18974;50.838;4.636;2023-01-28T03:05:55;5.60;99.90
32536;DHT22;18974;50.838;4.636;2023-01-28T03:08:50;5.60;99.90
32536;DHT22;18974;50.838;4.636;2023-01-28T03:11:39;5.60;99.90
32536;DHT22;18974;50.838;4.636;2023-01-28T03:14:25;5.60;99.90
32536;DHT22;18974;50.838;4.636;2023-01-28T03:17:42;5.60;99.90
32536;DHT22;18974;50.838;4.636;2023-01-28T03:20:34;5.50;99.90
32536;DHT22;18974;50.838;4.636;2023-01-28T03:23:26;5.50;99.90
32536;DHT22;18974;50.838;4.636;2023-01-28T03:26:13;5.50;99.90
32536;DHT22;18974;50.838;4.636;2023-01-28T03:29:05;5.60;99.90
32536;DHT22;18974;50.838;4.636;2023-01-28T03:31:51;5.50;99.90
32536;DHT22;18974;50.838;4.636;2023-01-28T03:34:38;5.40;99.90
32536;DHT22;18974;50.838;4.636;2023-01-28T03:37:23;5.40;99.90
32536;DHT22;18974;50.838;4.636;2023-01-28T03:39:53;5.40;99.90
32536;DHT22;18974;50.838;4.636;2023-01-28T03:42:22;5.40;99.90
32536;DHT22;18974;50.838;4.636;2023-01-28T03:44:48;5.40;99.90
32536;DHT22;18974;50.838;4.636;2023-01-28T03:47:20;5.40;99.90
32536;DHT22;18974;50.838;4.636;2023-01-28T03:49:48;5.40;99.90
32536;DHT22;18974;50.838;4.636;2023-01-28T03:52:15;5.40;99.90
32536;DHT22;18974;50.838;4.636;2023-01-28T03:54:43;5.40;99.90
32536;DHT22;18974;50.838;4.636;2023-01-28T03:57:11;5.40;99.90
32536;DHT22;18974;50.838;4.636;2023-01-28T03:59:37;5.40;99.90
32536;DHT22;18974;50.838;4.636;2023-01-28T04:02:03;5.40;99.90
32536;DHT22;18974;50.838;4.636;2023-01-28T04:04:30;5.30;99.90
32536;DHT22;18974;50.838;4.636;2023-01-28T04:06:57;5.40;99.90
32536;DHT22;18974;50.838;4.636;2023-01-28T04:09:23;5.30;99.90
32536;DHT22;18974;50.838;4.636;2023-01-28T04:11:49;5.30;99.90
32536;DHT22;18974;50.838;4.636;2023-01-28T04:14:16;5.30;99.90
32536;DHT22;18974;50.838;4.636;2023-01-28T04:16:42;5.30;99.90
32536;DHT22;18974;50.838;4.636;2023-01-28T04:19:09;5.40;99.90
32536;DHT22;18974;50.838;4.636;2023-01-28T04:21:35;5.40;99.90
32536;DHT22;18974;50.838;4.636;2023-01-28T04:24:01;5.40;99.90
32536;DHT22;18974;50.838;4.636;2023-01-28T04:26:27;5.30;99.90
32536;DHT22;18974;50.838;4.636;2023-01-28T04:28:53;5.30;99.90
32536;DHT22;18974;50.838;4.636;2023-01-28T04:31:19;5.20;99.90
32536;DHT22;18974;50.838;4.636;2023-01-28T04:33:45;5.20;99.90
32536;DHT22;18974;50.838;4.636;2023-01-28T04:36:10;5.10;99.90
32536;DHT22;18974;50.838;4.636;2023-01-28T04:38:36;5.00;99.90
32536;DHT22;18974;50.838;4.636;2023-01-28T04:41:02;5.00;99.90
32536;DHT22;18974;50.838;4.636;2023-01-28T04:43:27;5.10;99.90
32536;DHT22;18974;50.838;4.636;2023-01-28T04:45:53;5.10;99.90
32536;DHT22;18974;50.838;4.636;2023-01-28T04:48:18;5.10;99.90
32536;DHT22;18974;50.838;4.636;2023-01-28T04:50:44;5.10;99.90
32536;DHT22;18974;50.838;4.636;2023-01-28T04:53:10;5.10;99.90
32536;DHT22;18974;50.838;4.636;2023-01-28T04:55:36;5.20;99.90
32536;DHT22;18974;50.838;4.636;2023-01-28T04:58:02;5.20;99.90
32536;DHT22;18974;50.838;4.636;2023-01-28T05:00:28;5.20;99.90
32536;DHT22;18974;50.838;4.636;2023-01-28T05:02:53;5.20;99.90
32536;DHT22;18974;50.838;4.636;2023-01-28T05:05:19;5.30;99.90
32536;DHT22;18974;50.838;4.636;2023-01-28T05:07:52;5.20;99.90
32536;DHT22;18974;50.838;4.636;2023-01-28T05:10:19;5.30;99.90
32536;DHT22;18974;50.838;4.636;2023-01-28T05:12:46;5.30;99.90
32536;DHT22;18974;50.838;4.636;2023-01-28T05:15:12;5.30;99.90
32536;DHT22;18974;50.838;4.636;2023-01-28T05:17:38;5.20;99.90
32536;DHT22;18974;50.838;4.636;2023-01-28T05:20:04;5.20;99.90
32536;DHT22;18974;50.838;4.636;2023-01-28T05:22:32;5.20;99.90
32536;DHT22;18974;50.838;4.636;2023-01-28T05:24:58;5.20;99.90
32536;DHT22;18974;50.838;4.636;2023-01-28T05:27:24;5.20;99.90
32536;DHT22;18974;50.838;4.636;2023-01-28T05:29:49;5.20;99.90
32536;DHT22;18974;50.838;4.636;2023-01-28T05:32:15;5.20;99.90
32536;DHT22;18974;50.838;4.636;2023-01-28T05:34:40;5.20;99.90
32536;DHT22;18974;50.838;4.636;2023-01-28T05:37:06;5.20;99.90
32536;DHT22;18974;50.838;4.636;2023-01-28T05:39:32;5.20;99.90
32536;DHT22;18974;50.838;4.636;2023-01-28T05:41:57;5.20;99.90
32536;DHT22;18974;50.838;4.636;2023-01-28T05:44:23;5.10;99.90
32536;DHT22;18974;50.838;4.636;2023-01-28T05:46:48;5.10;99.90
32536;DHT22;18974;50.838;4.636;2023-01-28T05:49:14;5.10;99.90
32536;DHT22;18974;50.838;4.636;2023-01-28T05:51:41;5.10;99.90
32536;DHT22;18974;50.838;4.636;2023-01-28T05:54:07;5.10;99.90
32536;DHT22;18974;50.838;4.636;2023-01-28T05:56:33;5.10;99.90
32536;DHT22;18974;50.838;4.636;2023-01-28T05:59:01;5.10;99.90
32536;DHT22;18974;50.838;4.636;2023-01-28T06:01:30;5.10;99.90
32536;DHT22;18974;50.838;4.636;2023-01-28T06:03:56;5.10;99.90
32536;DHT22;18974;50.838;4.636;2023-01-28T06:06:21;5.10;99.90
32536;DHT22;18974;50.838;4.636;2023-01-28T06:08:47;5.20;99.90
32536;DHT22;18974;50.838;4.636;2023-01-28T06:11:13;5.10;99.90
32536;DHT22;18974;50.838;4.636;2023-01-28T06:13:38;5.20;99.90
32536;DHT22;18974;50.838;4.636;2023-01-28T06:16:06;5.20;99.90
32536;DHT22;18974;50.838;4.636;2023-01-28T06:18:32;5.20;99.90
32536;DHT22;18974;50.838;4.636;2023-01-28T06:20:58;5.30;99.90
32536;DHT22;18974;50.838;4.636;2023-01-28T06:23:24;5.20;99.90
32536;DHT22;18974;50.838;4.636;2023-01-28T06:25:54;5.30;99.90
32536;DHT22;18974;50.838;4.636;2023-01-28T06:28:20;5.20;99.90
32536;DHT22;18974;50.838;4.636;2023-01-28T06:30:52;5.10;99.90
32536;DHT22;18974;50.838;4.636;2023-01-28T06:33:19;4.90;99.90
32536;DHT22;18974;50.838;4.636;2023-01-28T06:35:45;5.00;99.90
32536;DHT22;18974;50.838;4.636;2023-01-28T06:38:12;5.00;99.90
32536;DHT22;18974;50.838;4.636;2023-01-28T06:40:37;4.90;99.90
32536;DHT22;18974;50.838;4.636;2023-01-28T06:43:04;4.80;99.90
32536;DHT22;18974;50.838;4.636;2023-01-28T06:45:30;4.80;99.90
32536;DHT22;18974;50.838;4.636;2023-01-28T06:47:56;4.80;99.90
32536;DHT22;18974;50.838;4.636;2023-01-28T06:50:22;4.80;99.90
32536;DHT22;18974;50.838;4.636;2023-01-28T06:52:48;4.80;99.90
32536;DHT22;18974;50.838;4.636;2023-01-28T06:55:13;4.80;99.90
32536;DHT22;18974;50.838;4.636;2023-01-28T06:57:40;4.90;99.90
32536;DHT22;18974;50.838;4.636;2023-01-28T07:00:11;4.80;99.90
32536;DHT22;18974;50.838;4.636;2023-01-28T07:02:39;4.90;99.90
32536;DHT22;18974;50.838;4.636;2023-01-28T07:05:05;4.80;99.90
32536;DHT22;18974;50.838;4.636;2023-01-28T07:07:31;4.90;99.90
32536;DHT22;18974;50.838;4.636;2023-01-28T07:09:57;4.90;99.90
32536;DHT22;18974;50.838;4.636;2023-01-28T07:12:23;5.00;99.90
32536;DHT22;18974;50.838;4.636;2023-01-28T07:14:49;4.90;99.90
32536;DHT22;18974;50.838;4.636;2023-01-28T07:17:15;5.00;99.90
32536;DHT22;18974;50.838;4.636;2023-01-28T07:19:40;5.00;99.90
32536;DHT22;18974;50.838;4.636;2023-01-28T07:22:06;5.00;99.90
32536;DHT22;18974;50.838;4.636;2023-01-28T07:24:31;4.90;99.90
32536;DHT22;18974;50.838;4.636;2023-01-28T07:26:58;4.90;99.90
32536;DHT22;18974;50.838;4.636;2023-01-28T07:29:23;4.90;99.90
32536;DHT22;18974;50.838;4.636;2023-01-28T07:31:49;4.90;99.90
32536;DHT22;18974;50.838;4.636;2023-01-28T07:34:14;4.90;99.90
32536;DHT22;18974;50.838;4.636;2023-01-28T07:36:40;4.90;99.90
32536;DHT22;18974;50.838;4.636;2023-01-28T07:39:05;5.00;99.90
32536;DHT22;18974;50.838;4.636;2023-01-28T07:41:34;4.80;99.90
32536;DHT22;18974;50.838;4.636;2023-01-28T07:43:59;4.80;99.90
32536;DHT22;18974;50.838;4.636;2023-01-28T07:46:27;4.70;99.90
32536;DHT22;18974;50.838;4.636;2023-01-28T07:48:53;4.80;99.90
32536;DHT22;18974;50.838;4.636;2023-01-28T07:51:18;4.70;99.90
32536;DHT22;18974;50.838;4.636;2023-01-28T07:53:44;4.70;99.90
32536;DHT22;18974;50.838;4.636;2023-01-28T07:56:10;4.60;99.90
32536;DHT22;18974;50.838;4.636;2023-01-28T07:58:35;4.50;99.90
32536;DHT22;18974;50.838;4.636;2023-01-28T08:01:01;4.50;99.90
32536;DHT22;18974;50.838;4.636;2023-01-28T08:03:27;4.50;99.90
32536;DHT22;18974;50.838;4.636;2023-01-28T08:05:54;4.60;99.90
32536;DHT22;18974;50.838;4.636;2023-01-28T08:08:21;4.70;99.90
32536;DHT22;18974;50.838;4.636;2023-01-28T08:10:47;4.80;99.90
32536;DHT22;18974;50.838;4.636;2023-01-28T08:13:15;4.70;99.90
32536;DHT22;18974;50.838;4.636;2023-01-28T08:15:41;4.70;99.90
32536;DHT22;18974;50.838;4.636;2023-01-28T08:18:09;4.70;99.90
32536;DHT22;18974;50.838;4.636;2023-01-28T08:20:35;4.70;99.90
32536;DHT22;18974;50.838;4.636;2023-01-28T08:23:19;4.70;99.90
32536;DHT22;18974;50.838;4.636;2023-01-28T08:25:45;4.80;99.90
32536;DHT22;18974;50.838;4.636;2023-01-28T08:28:12;4.80;99.90
32536;DHT22;18974;50.838;4.636;2023-01-28T08:30:38;4.80;99.90
32536;DHT22;18974;50.838;4.636;2023-01-28T08:33:06;4.90;99.90
32536;DHT22;18974;50.838;4.636;2023-01-28T08:35:32;4.80;99.90
32536;DHT22;18974;50.838;4.636;2023-01-28T08:37:59;4.90;99.90
32536;DHT22;18974;50.838;4.636;2023-01-28T08:40:26;4.90;99.90
32536;DHT22;18974;50.838;4.636;2023-01-28T08:42:52;4.80;99.90
32536;DHT22;18974;50.838;4.636;2023-01-28T08:45:19;4.90;99.90
32536;DHT22;18974;50.838;4.636;2023-01-28T08:47:51;5.00;99.90
32536;DHT22;18974;50.838;4.636;2023-01-28T08:50:17;4.90;99.90
32536;DHT22;18974;50.838;4.636;2023-01-28T08:52:44;4.90;99.90
32536;DHT22;18974;50.838;4.636;2023-01-28T08:55:11;4.90;99.90
32536;DHT22;18974;50.838;4.636;2023-01-28T08:57:37;4.90;99.90
32536;DHT22;18974;50.838;4.636;2023-01-28T09:00:04;4.80;99.90
32536;DHT22;18974;50.838;4.636;2023-01-28T09:02:30;4.90;99.90
32536;DHT22;18974;50.838;4.636;2023-01-28T09:04:55;4.80;99.90
32536;DHT22;18974;50.838;4.636;2023-01-28T09:07:21;4.80;99.90
32536;DHT22;18974;50.838;4.636;2023-01-28T09:09:47;4.80;99.90
32536;DHT22;18974;50.838;4.636;2023-01-28T09:12:12;4.80;99.90
32536;DHT22;18974;50.838;4.636;2023-01-28T09:14:38;4.90;99.90
32536;DHT22;18974;50.838;4.636;2023-01-28T09:17:04;4.90;99.90
32536;DHT22;18974;50.838;4.636;2023-01-28T09:19:32;5.00;99.90
32536;DHT22;18974;50.838;4.636;2023-01-28T09:21:57;5.00;99.90
32536;DHT22;18974;50.838;4.636;2023-01-28T09:24:23;5.00;99.90
32536;DHT22;18974;50.838;4.636;2023-01-28T09:26:49;4.90;99.90
32536;DHT22;18974;50.838;4.636;2023-01-28T09:29:14;5.00;99.90
32536;DHT22;18974;50.838;4.636;2023-01-28T09:31:40;5.00;99.90
32536;DHT22;18974;50.838;4.636;2023-01-28T09:34:08;5.00;99.90
32536;DHT22;18974;50.838;4.636;2023-01-28T09:36:34;5.00;99.90
32536;DHT22;18974;50.838;4.636;2023-01-28T09:39:00;5.00;99.90
32536;DHT22;18974;50.838;4.636;2023-01-28T09:41:54;5.10;99.90
32536;DHT22;18974;50.838;4.636;2023-01-28T09:47:01;5.10;99.90
32536;DHT22;18974;50.838;4.636;2023-01-28T09:49:42;5.20;99.90
32536;DHT22;18974;50.838;4.636;2023-01-28T09:52:16;5.20;99.90
32536;DHT22;18974;50.838;4.636;2023-01-28T09:54:59;5.10;99.90
32536;DHT22;18974;50.838;4.636;2023-01-28T09:57:35;5.10;99.90
32536;DHT22;18974;50.838;4.636;2023-01-28T10:00:05;5.10;99.90
32536;DHT22;18974;50.838;4.636;2023-01-28T10:08:24;5.10;99.90
32536;DHT22;18974;50.838;4.636;2023-01-28T10:11:07;5.00;99.90
32536;DHT22;18974;50.838;4.636;2023-01-28T10:16:40;5.20;99.90
32536;DHT22;18974;50.838;4.636;2023-01-28T10:19:40;5.20;99.90
32536;DHT22;18974;50.838;4.636;2023-01-28T10:22:26;5.10;99.90
32536;DHT22;18974;50.838;4.636;2023-01-28T10:24:59;5.10;99.90
32536;DHT22;18974;50.838;4.636;2023-01-28T10:27:32;5.20;99.90
32536;DHT22;18974;50.838;4.636;2023-01-28T10:29:59;5.20;99.90
32536;DHT22;18974;50.838;4.636;2023-01-28T10:32:37;5.10;99.90
32536;DHT22;18974;50.838;4.636;2023-01-28T10:35:04;5.30;99.90
32536;DHT22;18974;50.838;4.636;2023-01-28T10:37:33;5.30;99.90
32536;DHT22;18974;50.838;4.636;2023-01-28T10:40:00;5.20;99.90
32536;DHT22;18974;50.838;4.636;2023-01-28T10:42:30;5.20;99.90
32536;DHT22;18974;50.838;4.636;2023-01-28T10:45:01;5.20;99.90
32536;DHT22;18974;50.838;4.636;2023-01-28T10:47:37;5.30;99.90
32536;DHT22;18974;50.838;4.636;2023-01-28T10:50:04;5.40;99.90
32536;DHT22;18974;50.838;4.636;2023-01-28T10:52:30;5.40;99.90
32536;DHT22;18974;50.838;4.636;2023-01-28T10:55:04;5.30;99.90
32536;DHT22;18974;50.838;4.636;2023-01-28T10:57:32;5.30;99.90
32536;DHT22;18974;50.838;4.636;2023-01-28T11:00:21;5.20;99.90
32536;DHT22;18974;50.838;4.636;2023-01-28T11:02:48;5.20;99.90
32536;DHT22;18974;50.838;4.636;2023-01-28T11:05:18;5.20;99.90
32536;DHT22;18974;50.838;4.636;2023-01-28T11:08:01;5.30;99.90
32536;DHT22;18974;50.838;4.636;2023-01-28T11:10:32;5.40;99.90
32536;DHT22;18974;50.838;4.636;2023-01-28T11:13:01;5.50;99.90
32536;DHT22;18974;50.838;4.636;2023-01-28T11:15:29;5.50;99.90
32536;DHT22;18974;50.838;4.636;2023-01-28T11:17:58;5.60;99.90
32536;DHT22;18974;50.838;4.636;2023-01-28T11:20:25;5.70;99.90
32536;DHT22;18974;50.838;4.636;2023-01-28T11:22:53;5.80;99.90
32536;DHT22;18974;50.838;4.636;2023-01-28T11:25:30;5.70;99.90
32536;DHT22;18974;50.838;4.636;2023-01-28T11:27:57;5.70;99.90
32536;DHT22;18974;50.838;4.636;2023-01-28T11:30:25;5.70;99.90
32536;DHT22;18974;50.838;4.636;2023-01-28T11:32:56;5.60;99.90
32536;DHT22;18974;50.838;4.636;2023-01-28T11:35:26;5.60;99.90
32536;DHT22;18974;50.838;4.636;2023-01-28T11:37:53;5.40;99.90
32536;DHT22;18974;50.838;4.636;2023-01-28T11:40:19;5.50;99.90
32536;DHT22;18974;50.838;4.636;2023-01-28T11:42:46;5.50;99.90
32536;DHT22;18974;50.838;4.636;2023-01-28T11:45:51;5.60;99.90
32536;DHT22;18974;50.838;4.636;2023-01-28T11:57:39;5.30;99.90
32536;DHT22;18974;50.838;4.636;2023-01-28T12:00:29;5.40;99.90
32536;DHT22;18974;50.838;4.636;2023-01-28T12:03:29;5.30;99.90
32536;DHT22;18974;50.838;4.636;2023-01-28T12:12:02;5.60;99.90
32536;DHT22;18974;50.838;4.636;2023-01-28T12:18:16;5.70;99.90
32536;DHT22;18974;50.838;4.636;2023-01-28T12:20:51;5.90;99.90
32536;DHT22;18974;50.838;4.636;2023-01-28T12:23:52;5.90;99.90
32536;DHT22;18974;50.838;4.636;2023-01-28T12:26:45;5.90;99.90
32536;DHT22;18974;50.838;4.636;2023-01-28T12:29:29;6.00;99.90
32536;DHT22;18974;50.838;4.636;2023-01-28T12:43:03;6.30;99.90
32536;DHT22;18974;50.838;4.636;2023-01-28T12:45:48;6.40;99.90
32536;DHT22;18974;50.838;4.636;2023-01-28T12:48:28;6.40;99.90
32536;DHT22;18974;50.838;4.636;2023-01-28T12:53:34;6.40;99.90
32536;DHT22;18974;50.838;4.636;2023-01-28T12:56:20;6.30;99.90
32536;DHT22;18974;50.838;4.636;2023-01-28T12:58:56;6.20;99.90
32536;DHT22;18974;50.838;4.636;2023-01-28T13:06:48;6.30;99.90
32536;DHT22;18974;50.838;4.636;2023-01-28T13:09:24;6.60;99.90
32536;DHT22;18974;50.838;4.636;2023-01-28T13:11:53;6.60;99.90
32536;DHT22;18974;50.838;4.636;2023-01-28T13:14:27;6.70;99.90
32536;DHT22;18974;50.838;4.636;2023-01-28T13:16:53;6.90;99.90
32536;DHT22;18974;50.838;4.636;2023-01-28T13:21:45;7.10;99.90
32536;DHT22;18974;50.838;4.636;2023-01-28T13:26:53;7.10;99.90
32536;DHT22;18974;50.838;4.636;2023-01-28T13:31:55;7.00;99.90
32536;DHT22;18974;50.838;4.636;2023-01-28T13:34:36;6.90;99.90
32536;DHT22;18974;50.838;4.636;2023-01-28T13:39:34;6.50;99.90
32536;DHT22;18974;50.838;4.636;2023-01-28T13:42:28;6.30;99.90
32536;DHT22;18974;50.838;4.636;2023-01-28T13:44:55;6.20;99.90
32536;DHT22;18974;50.838;4.636;2023-01-28T13:47:33;6.10;99.90
32536;DHT22;18974;50.838;4.636;2023-01-28T13:50:10;6.10;99.90
32536;DHT22;18974;50.838;4.636;2023-01-28T13:52:54;6.20;99.90
32536;DHT22;18974;50.838;4.636;2023-01-28T13:55:35;6.30;99.90
32536;DHT22;18974;50.838;4.636;2023-01-28T14:04:06;6.70;99.90
32536;DHT22;18974;50.838;4.636;2023-01-28T14:15:21;7.20;99.90
32536;DHT22;18974;50.838;4.636;2023-01-28T14:17:56;7.20;99.90
32536;DHT22;18974;50.838;4.636;2023-01-28T14:20:28;7.20;99.90
32536;DHT22;18974;50.838;4.636;2023-01-28T14:23:00;7.00;99.90
32536;DHT22;18974;50.838;4.636;2023-01-28T14:31:17;6.60;99.90
32536;DHT22;18974;50.838;4.636;2023-01-28T14:33:49;6.30;99.90
32536;DHT22;18974;50.838;4.636;2023-01-28T14:36:15;6.30;99.90
32536;DHT22;18974;50.838;4.636;2023-01-28T14:38:43;6.20;99.90
32536;DHT22;18974;50.838;4.636;2023-01-28T14:41:19;6.30;99.90
32536;DHT22;18974;50.838;4.636;2023-01-28T14:43:45;6.40;99.90
32536;DHT22;18974;50.838;4.636;2023-01-28T14:46:46;6.40;99.90
32536;DHT22;18974;50.838;4.636;2023-01-28T14:49:30;6.30;99.90
32536;DHT22;18974;50.838;4.636;2023-01-28T14:55:39;6.30;99.90
32536;DHT22;18974;50.838;4.636;2023-01-28T14:58:19;6.30;99.90
32536;DHT22;18974;50.838;4.636;2023-01-28T15:00:55;6.20;99.90
32536;DHT22;18974;50.838;4.636;2023-01-28T15:03:24;6.20;99.90
32536;DHT22;18974;50.838;4.636;2023-01-28T15:06:01;6.10;99.90
32536;DHT22;18974;50.838;4.636;2023-01-28T15:08:26;6.00;99.90
32536;DHT22;18974;50.838;4.636;2023-01-28T15:10:52;5.80;99.90
32536;DHT22;18974;50.838;4.636;2023-01-28T15:13:29;5.70;99.90
32536;DHT22;18974;50.838;4.636;2023-01-28T15:15:56;5.60;99.90
32536;DHT22;18974;50.838;4.636;2023-01-28T15:18:33;5.60;99.90
32536;DHT22;18974;50.838;4.636;2023-01-28T15:20:59;5.40;99.90
32536;DHT22;18974;50.838;4.636;2023-01-28T15:23:30;5.40;99.90
32536;DHT22;18974;50.838;4.636;2023-01-28T15:25:57;5.30;99.90
32536;DHT22;18974;50.838;4.636;2023-01-28T15:28:31;5.20;99.90
32536;DHT22;18974;50.838;4.636;2023-01-28T15:30:58;5.20;99.90
32536;DHT22;18974;50.838;4.636;2023-01-28T15:33:24;5.10;99.90
32536;DHT22;18974;50.838;4.636;2023-01-28T15:35:55;5.10;99.90
32536;DHT22;18974;50.838;4.636;2023-01-28T15:38:22;5.10;99.90
32536;DHT22;18974;50.838;4.636;2023-01-28T15:40:59;5.00;99.90
32536;DHT22;18974;50.838;4.636;2023-01-28T15:43:36;5.10;99.90
32536;DHT22;18974;50.838;4.636;2023-01-28T15:46:10;5.20;99.90
32536;DHT22;18974;50.838;4.636;2023-01-28T15:48:41;5.10;99.90
32536;DHT22;18974;50.838;4.636;2023-01-28T15:51:19;5.10;99.90
32536;DHT22;18974;50.838;4.636;2023-01-28T15:53:50;5.00;99.90
32536;DHT22;18974;50.838;4.636;2023-01-28T15:56:24;4.90;99.90
32536;DHT22;18974;50.838;4.636;2023-01-28T15:58:50;4.90;99.90
32536;DHT22;18974;50.838;4.636;2023-01-28T16:01:18;4.80;99.90
32536;DHT22;18974;50.838;4.636;2023-01-28T16:03:46;4.80;99.90
32536;DHT22;18974;50.838;4.636;2023-01-28T16:06:30;4.70;99.90
32536;DHT22;18974;50.838;4.636;2023-01-28T16:09:29;4.70;99.90
32536;DHT22;18974;50.838;4.636;2023-01-28T16:12:21;4.60;99.90
32536;DHT22;18974;50.838;4.636;2023-01-28T16:14:59;4.50;99.90
32536;DHT22;18974;50.838;4.636;2023-01-28T16:17:39;4.50;99.90
32536;DHT22;18974;50.838;4.636;2023-01-28T16:20:13;4.50;99.90
32536;DHT22;18974;50.838;4.636;2023-01-28T16:22:43;4.50;99.90
32536;DHT22;18974;50.838;4.636;2023-01-28T16:27:57;4.60;99.90
32536;DHT22;18974;50.838;4.636;2023-01-28T16:30:24;4.70;99.90
32536;DHT22;18974;50.838;4.636;2023-01-28T16:32:50;4.80;99.90
32536;DHT22;18974;50.838;4.636;2023-01-28T16:35:29;4.80;99.90
32536;DHT22;18974;50.838;4.636;2023-01-28T16:37:54;4.90;99.90
32536;DHT22;18974;50.838;4.636;2023-01-28T16:40:24;4.80;99.90
32536;DHT22;18974;50.838;4.636;2023-01-28T16:42:53;4.90;99.90
32536;DHT22;18974;50.838;4.636;2023-01-28T16:45:23;4.90;99.90
32536;DHT22;18974;50.838;4.636;2023-01-28T16:47:50;4.90;99.90
32536;DHT22;18974;50.838;4.636;2023-01-28T16:50:16;4.90;99.90
32536;DHT22;18974;50.838;4.636;2023-01-28T16:52:44;4.90;99.90
32536;DHT22;18974;50.838;4.636;2023-01-28T16:55:12;4.90;99.90
32536;DHT22;18974;50.838;4.636;2023-01-28T16:57:39;4.90;99.90
32536;DHT22;18974;50.838;4.636;2023-01-28T17:00:05;5.10;99.90
32536;DHT22;18974;50.838;4.636;2023-01-28T17:02:31;4.90;99.90
32536;DHT22;18974;50.838;4.636;2023-01-28T17:04:57;4.80;99.90
32536;DHT22;18974;50.838;4.636;2023-01-28T17:07:23;4.60;99.90
32536;DHT22;18974;50.838;4.636;2023-01-28T17:09:48;4.60;99.90
32536;DHT22;18974;50.838;4.636;2023-01-28T17:12:14;4.50;99.90
32536;DHT22;18974;50.838;4.636;2023-01-28T17:14:40;4.40;99.90
32536;DHT22;18974;50.838;4.636;2023-01-28T17:17:05;4.40;99.90
32536;DHT22;18974;50.838;4.636;2023-01-28T17:19:31;4.40;99.90
32536;DHT22;18974;50.838;4.636;2023-01-28T17:21:59;4.30;99.90
32536;DHT22;18974;50.838;4.636;2023-01-28T17:24:28;4.40;99.90
32536;DHT22;18974;50.838;4.636;2023-01-28T17:26:54;4.20;99.90
32536;DHT22;18974;50.838;4.636;2023-01-28T17:29:19;4.20;99.90
32536;DHT22;18974;50.838;4.636;2023-01-28T17:31:45;4.20;99.90
32536;DHT22;18974;50.838;4.636;2023-01-28T17:34:11;4.20;99.90
32536;DHT22;18974;50.838;4.636;2023-01-28T17:36:36;4.20;99.90
32536;DHT22;18974;50.838;4.636;2023-01-28T17:39:03;4.10;99.90
32536;DHT22;18974;50.838;4.636;2023-01-28T17:41:31;4.20;99.90
32536;DHT22;18974;50.838;4.636;2023-01-28T17:43:59;4.00;99.90
32536;DHT22;18974;50.838;4.636;2023-01-28T17:46:25;4.00;99.90
32536;DHT22;18974;50.838;4.636;2023-01-28T17:48:51;4.00;99.90
32536;DHT22;18974;50.838;4.636;2023-01-28T17:51:19;3.90;99.90
32536;DHT22;18974;50.838;4.636;2023-01-28T17:53:50;3.80;99.90